Time;durP1;ratioP1;P1;durP2;ratioP2;P2;SDS_P1;SDS_P2;PMS_P1;PMS_P2;Temp;Humidity;BMP_temperature;BMP_pressure;BME280_temperature;BME280_humidity;BME280_pressure;Samples;Min_cycle;Max_cycle;Signal;HPM_P1;HPM_P2
2023/01/24 00:01:08;;;;;;;;;;;;;;;2.76;93.88;103936.78;5092844;28;19924;-76
2023/01/24 00:03:33;;;;;;;;;;;;;;;2.77;94.11;103936.84;5083191;28;20263;-76
2023/01/24 00:05:58;;;;;;;;;;;;;;;2.80;94.66;103939.56;5076269;28;19961;-76
2023/01/24 00:08:23;;;;;;;;;;;;;;;2.82;94.45;103931.84;5089049;28;19996;-76
2023/01/24 00:10:56;;;;;;;;;;;;;;;2.81;94.22;103925.78;5091413;28;20092;-76
2023/01/24 00:13:22;;;;;;;;;;;;;;;2.77;93.01;103931.69;5083935;28;19924;-76
2023/01/24 00:15:47;;;;;;;;;;;;;;;2.77;93.44;103930.81;5076351;28;19924;-76
2023/01/24 00:18:12;;;;;;;;;;;;;;;2.77;94.00;103926.50;5079112;28;19999;-76
2023/01/24 00:20:37;;;;;;;;;;;;;;;2.80;94.51;103925.72;5079532;28;19920;-76
2023/01/24 00:23:03;;;;;;;;;;;;;;;2.81;94.46;103928.38;5080726;28;19908;-76
2023/01/24 00:25:28;;;;;;;;;;;;;;;2.78;93.27;103928.25;5080102;28;19927;-76
2023/01/24 00:27:53;;;;;;;;;;;;;;;2.76;93.08;103932.47;5079376;28;19920;-76
2023/01/24 00:30:18;;;;;;;;;;;;;;;2.75;92.23;103932.41;5080298;28;19913;-76
2023/01/24 00:32:44;;;;;;;;;;;;;;;2.72;92.29;103927.13;5080596;28;19962;-76
2023/01/24 00:35:09;;;;;;;;;;;;;;;2.71;92.35;103927.94;5062538;28;19919;-76
2023/01/24 00:37:34;;;;;;;;;;;;;;;2.70;92.67;103927.06;5080088;28;19962;-76
2023/01/24 00:40:00;;;;;;;;;;;;;;;2.67;92.82;103935.59;5079287;28;20257;-76
2023/01/24 00:42:25;;;;;;;;;;;;;;;2.67;92.79;103929.50;5079717;28;19924;-76
2023/01/24 00:44:50;;;;;;;;;;;;;;;2.65;92.72;103926.84;5080484;28;20236;-76
2023/01/24 00:47:16;;;;;;;;;;;;;;;2.66;92.88;103931.22;5078905;28;20126;-76
2023/01/24 00:49:41;;;;;;;;;;;;;;;2.66;93.22;103918.28;5080541;28;19921;-76
2023/01/24 00:52:06;;;;;;;;;;;;;;;2.68;93.64;103916.66;5080256;28;19973;-76
2023/01/24 00:54:31;;;;;;;;;;;;;;;2.68;93.36;103915.78;5078195;28;19920;-76
2023/01/24 00:56:57;;;;;;;;;;;;;;;2.69;93.36;103913.25;5080306;28;19984;-76
2023/01/24 00:59:22;;;;;;;;;;;;;;;2.69;93.29;103917.50;5084644;28;20013;-76
2023/01/24 01:01:47;;;;;;;;;;;;;;;2.68;93.29;103910.59;5095010;28;19916;-76
2023/01/24 01:04:13;;;;;;;;;;;;;;;2.69;93.27;103920.09;5087684;28;20200;-76
2023/01/24 01:06:38;;;;;;;;;;;;;;;2.71;93.87;103917.59;5096111;28;19924;-76
2023/01/24 01:09:04;;;;;;;;;;;;;;;2.73;94.12;103918.53;5087999;28;19924;-76
2023/01/24 01:11:29;;;;;;;;;;;;;;;2.74;94.38;103908.25;5087883;28;19926;-76
2023/01/24 01:13:55;;;;;;;;;;;;;;;2.76;94.41;103904.00;5093865;28;20283;-76
2023/01/24 01:16:20;;;;;;;;;;;;;;;2.78;94.63;103902.38;5099162;28;20238;-76
2023/01/24 01:18:46;;;;;;;;;;;;;;;2.79;93.66;103903.28;5091080;28;19920;-76
2023/01/24 01:21:13;;;;;;;;;;;;;;;2.81;94.20;103899.03;5079345;28;19923;-76
2023/01/24 01:23:38;;;;;;;;;;;;;;;2.82;94.23;103895.59;5079112;28;19916;-76
2023/01/24 01:26:05;;;;;;;;;;;;;;;2.78;93.39;103897.19;5079278;28;20179;-76
2023/01/24 01:28:30;;;;;;;;;;;;;;;2.80;93.63;103900.75;5078799;28;19935;-76
2023/01/24 01:30:56;;;;;;;;;;;;;;;2.81;93.80;103901.63;5078952;28;19924;-76
2023/01/24 01:33:21;;;;;;;;;;;;;;;2.83;93.92;103906.03;5079113;28;19979;-76
2023/01/24 01:35:47;;;;;;;;;;;;;;;2.82;93.66;103901.69;5077759;28;20178;-76
2023/01/24 01:38:12;;;;;;;;;;;;;;;2.81;93.14;103897.31;5079780;28;19958;-76
2023/01/24 01:40:37;;;;;;;;;;;;;;;2.81;93.39;103899.03;5077536;28;20208;-76
2023/01/24 01:43:02;;;;;;;;;;;;;;;2.80;93.15;103894.66;5079216;28;19943;-76
2023/01/24 01:45:31;;;;;;;;;;;;;;;2.79;92.86;103893.78;5077438;28;19962;-76
2023/01/24 01:47:57;;;;;;;;;;;;;;;2.78;92.72;103894.59;5077851;28;19916;-76
2023/01/24 01:50:26;;;;;;;;;;;;;;;2.77;92.73;103892.84;5078741;28;19923;-76
2023/01/24 01:52:51;;;;;;;;;;;;;;;2.77;92.59;103891.97;5089424;28;19995;-76
2023/01/24 01:55:18;;;;;;;;;;;;;;;2.75;92.50;103897.09;5089434;28;20212;-76
2023/01/24 01:57:44;;;;;;;;;;;;;;;2.75;92.82;103894.50;5078898;28;20222;-76
2023/01/24 02:00:15;;;;;;;;;;;;;;;2.75;92.79;103896.19;5080459;28;19923;-76
2023/01/24 02:05:06;;;;;;;;;;;;;;;2.73;92.75;103887.47;5084773;28;19924;-77
2023/01/24 02:07:38;;;;;;;;;;;;;;;2.72;92.86;103886.59;5086953;28;19954;-77
2023/01/24 02:10:04;;;;;;;;;;;;;;;2.73;92.88;103878.03;5087137;28;19927;-77
2023/01/24 02:12:36;;;;;;;;;;;;;;;2.76;93.00;103892.78;5096788;28;19912;-77
2023/01/24 02:17:50;;;;;;;;;;;;;;;2.79;93.94;103888.63;5085273;28;19918;-77
2023/01/24 02:20:19;;;;;;;;;;;;;;;2.78;93.59;103889.41;5084892;28;19928;-77
2023/01/24 02:22:44;;;;;;;;;;;;;;;2.78;93.25;103886.84;5090000;28;20194;-77
2023/01/24 02:25:15;;;;;;;;;;;;;;;2.78;93.25;103888.53;5084156;28;19925;-77
2023/01/24 02:27:40;;;;;;;;;;;;;;;2.81;93.65;103891.28;5078399;28;19921;-77
2023/01/24 02:30:05;;;;;;;;;;;;;;;2.80;93.16;103890.41;5081398;28;19924;-77
2023/01/24 02:32:31;;;;;;;;;;;;;;;2.83;93.69;103898.25;5086887;28;19919;-77
2023/01/24 02:34:56;;;;;;;;;;;;;;;2.83;93.80;103895.66;5076574;28;20087;-77
2023/01/24 02:37:22;;;;;;;;;;;;;;;2.82;93.13;103893.94;5076165;28;19920;-77
2023/01/24 02:39:51;;;;;;;;;;;;;;;2.75;91.79;103901.34;5078264;28;20104;-77
2023/01/24 02:42:20;;;;;;;;;;;;;;;2.69;91.04;103883.88;5076863;28;20038;-77
2023/01/24 02:44:52;;;;;;;;;;;;;;;2.67;91.23;103886.44;5078555;28;20088;-77
2023/01/24 02:47:17;;;;;;;;;;;;;;;2.67;92.00;103881.25;5087453;28;20123;-77
2023/01/24 02:49:42;;;;;;;;;;;;;;;2.64;91.69;103885.41;5087099;28;20003;-77
2023/01/24 02:54:52;;;;;;;;;;;;;;;2.55;91.27;103891.09;5078566;28;19938;-77
2023/01/24 03:00:00;;;;;;;;;;;;;;;2.52;91.75;103883.19;5092353;28;19951;-77
2023/01/24 03:02:26;;;;;;;;;;;;;;;2.54;92.22;103885.84;5077221;28;19921;-77
2023/01/24 03:04:51;;;;;;;;;;;;;;;2.53;92.49;103882.38;5078746;28;19927;-77
2023/01/24 03:07:16;;;;;;;;;;;;;;;2.53;92.76;103881.47;5096322;28;19998;-77
2023/01/24 03:09:47;;;;;;;;;;;;;;;2.54;92.58;103878.97;5083313;28;20010;-77
2023/01/24 03:36:49;;;;;;;;;;;;;;;2.55;92.85;103879.84;5095592;28;20163;-76
2023/01/24 03:41:58;;;;;;;;;;;;;;;2.58;93.08;103873.09;5088662;28;19953;-76
2023/01/24 03:44:23;;;;;;;;;;;;;;;2.59;93.38;103869.69;5096905;28;19928;-76
2023/01/24 03:46:48;;;;;;;;;;;;;;;2.61;92.94;103874.94;5086355;28;19925;-76
2023/01/24 03:49:16;;;;;;;;;;;;;;;2.63;93.07;103875.88;5085086;28;19962;-76
2023/01/24 03:54:25;;;;;;;;;;;;;;;2.65;93.37;103872.50;5079944;28;20144;-76
2023/01/24 03:56:50;;;;;;;;;;;;;;;2.67;93.64;103878.66;5092471;28;19948;-76
2023/01/24 03:59:16;;;;;;;;;;;;;;;2.67;92.89;103882.94;5082520;28;19929;-77
2023/01/24 04:01:41;;;;;;;;;;;;;;;2.67;92.63;103882.94;5089416;28;19962;-77
2023/01/24 04:04:07;;;;;;;;;;;;;;;2.69;93.24;103881.28;5082937;28;19928;-77
2023/01/24 04:06:32;;;;;;;;;;;;;;;2.68;93.00;103879.53;5092184;28;19924;-77
2023/01/24 04:08:57;;;;;;;;;;;;;;;2.65;91.63;103874.22;5091675;28;19921;-77
2023/01/24 04:11:23;;;;;;;;;;;;;;;2.61;91.40;103874.94;5082816;28;19920;-77
2023/01/24 04:13:48;;;;;;;;;;;;;;;2.57;91.28;103871.34;5081124;28;19935;-77
2023/01/24 04:16:14;;;;;;;;;;;;;;;2.57;91.69;103870.47;5087625;28;19947;-77
2023/01/24 04:18:39;;;;;;;;;;;;;;;2.58;92.21;103872.22;5081133;28;20139;-77
2023/01/24 04:21:05;;;;;;;;;;;;;;;2.58;92.50;103879.97;5084581;28;19928;-77
2023/01/24 04:23:30;;;;;;;;;;;;;;;2.59;92.85;103881.75;5095427;28;19920;-77
2023/01/24 04:25:58;;;;;;;;;;;;;;;2.60;93.20;103873.16;5080799;28;19936;-77
2023/01/24 04:28:23;;;;;;;;;;;;;;;2.61;93.18;103869.75;5081540;28;19920;-77
2023/01/24 04:30:49;;;;;;;;;;;;;;;2.62;93.16;103874.09;5088171;28;19920;-77
2023/01/24 04:33:14;;;;;;;;;;;;;;;2.59;92.46;103871.41;5085109;28;19912;-77
2023/01/24 04:35:39;;;;;;;;;;;;;;;2.57;92.43;103876.50;5078829;28;19908;-77
2023/01/24 04:38:05;;;;;;;;;;;;;;;2.58;92.77;103877.38;5079290;28;19912;-77
2023/01/24 04:40:30;;;;;;;;;;;;;;;2.55;92.54;103878.16;5079968;28;19954;-77
2023/01/24 04:42:56;;;;;;;;;;;;;;;2.52;91.77;103878.00;5080374;28;19944;-76
2023/01/24 04:45:21;;;;;;;;;;;;;;;2.49;91.57;103872.69;5080161;28;20116;-76
2023/01/24 04:47:47;;;;;;;;;;;;;;;2.48;91.82;103879.59;5080346;28;19927;-76
2023/01/24 04:50:12;;;;;;;;;;;;;;;2.47;92.00;103877.84;5078710;28;19943;-77
2023/01/24 04:52:37;;;;;;;;;;;;;;;2.46;92.06;103888.13;5078291;28;19912;-77
2023/01/24 04:55:03;;;;;;;;;;;;;;;2.45;92.28;103886.34;5080249;28;20120;-77
2023/01/24 04:57:28;;;;;;;;;;;;;;;2.42;91.94;103889.69;5079933;28;19908;-77
2023/01/24 04:59:53;;;;;;;;;;;;;;;2.42;92.29;103886.19;5080274;28;19908;-77
2023/01/24 05:02:19;;;;;;;;;;;;;;;2.43;92.69;103888.84;5087941;28;19912;-77
2023/01/24 05:04:44;;;;;;;;;;;;;;;2.40;92.15;103893.00;5079474;28;19995;-77
2023/01/24 05:07:09;;;;;;;;;;;;;;;2.38;91.57;103900.72;5080085;28;19938;-77
2023/01/24 05:09:34;;;;;;;;;;;;;;;2.39;91.96;103901.63;5099330;28;19938;-77
2023/01/24 05:12:00;;;;;;;;;;;;;;;2.37;92.26;103901.53;5083152;28;19924;-77
2023/01/24 05:14:25;;;;;;;;;;;;;;;2.38;92.63;103897.25;5095705;28;19947;-77
2023/01/24 05:16:50;;;;;;;;;;;;;;;2.41;92.96;103894.78;5097731;28;19920;-77
2023/01/24 05:19:15;;;;;;;;;;;;;;;2.44;93.50;103892.34;5081411;28;19943;-77
2023/01/24 05:21:41;;;;;;;;;;;;;;;2.44;93.27;103898.41;5094117;28;19966;-77
2023/01/24 05:24:06;;;;;;;;;;;;;;;2.47;93.31;103905.41;5083245;28;19928;-77
2023/01/24 05:26:32;;;;;;;;;;;;;;;2.46;92.97;103903.66;5078794;28;19926;-77
2023/01/24 05:28:57;;;;;;;;;;;;;;;2.45;92.49;103901.88;5080855;28;19977;-77
2023/01/24 05:31:22;;;;;;;;;;;;;;;2.43;91.98;103906.97;5084277;28;19955;-77
2023/01/24 05:33:48;;;;;;;;;;;;;;;2.41;91.51;103910.31;5098127;28;19920;-77
2023/01/24 05:36:18;;;;;;;;;;;;;;;2.43;91.95;103909.56;5080568;28;19931;-77
2023/01/24 05:38:43;;;;;;;;;;;;;;;2.43;91.95;103913.84;5090539;28;19920;-77
2023/01/24 05:41:09;;;;;;;;;;;;;;;2.45;92.43;103915.66;5089696;28;19927;-77
2023/01/24 05:43:35;;;;;;;;;;;;;;;2.44;91.70;103908.75;5088574;28;20106;-77
2023/01/24 05:46:02;;;;;;;;;;;;;;;2.46;92.09;103914.88;5089644;28;19951;-77
2023/01/24 05:48:27;;;;;;;;;;;;;;;2.48;92.47;103909.75;5086489;28;20100;-76
2023/01/24 05:50:59;;;;;;;;;;;;;;;2.49;92.88;103917.59;5099380;28;20211;-77
2023/01/24 05:53:25;;;;;;;;;;;;;;;2.50;92.48;103921.06;5086959;28;20138;-77
2023/01/24 05:56:01;;;;;;;;;;;;;;;2.48;91.98;103920.13;5084865;28;20124;-77
2023/01/24 05:58:27;;;;;;;;;;;;;;;2.46;91.91;103914.00;5090134;28;19983;-77
2023/01/24 06:00:53;;;;;;;;;;;;;;;2.47;92.36;103919.25;5092921;28;19924;-77
2023/01/24 06:03:18;;;;;;;;;;;;;;;2.48;92.75;103920.13;5086847;28;19949;-77
2023/01/24 06:05:47;;;;;;;;;;;;;;;2.46;92.18;103914.00;5092235;28;19936;-77
2023/01/24 06:08:12;;;;;;;;;;;;;;;2.43;91.51;103917.31;5086789;28;19923;-77
2023/01/24 06:10:37;;;;;;;;;;;;;;;2.43;91.31;103916.44;5085918;28;19917;-77
2023/01/24 06:13:03;;;;;;;;;;;;;;;2.43;92.07;103911.25;5083242;28;19916;-77
2023/01/24 06:15:28;;;;;;;;;;;;;;;2.41;92.18;103911.19;5093951;28;19959;-77
2023/01/24 06:17:53;;;;;;;;;;;;;;;2.41;92.43;103913.78;5083206;28;19916;-77
2023/01/24 06:20:19;;;;;;;;;;;;;;;2.44;92.76;103926.84;5095195;28;19928;-77
2023/01/24 06:22:50;;;;;;;;;;;;;;;2.46;93.00;103924.34;5087474;28;20065;-77
2023/01/24 06:25:25;;;;;;;;;;;;;;;2.46;93.11;103920.03;5089041;28;19924;-77
2023/01/24 06:27:50;;;;;;;;;;;;;;;2.46;92.91;103921.75;5082342;28;20227;-77
2023/01/24 06:30:16;;;;;;;;;;;;;;;2.46;93.16;103925.22;5079862;28;19925;-77
2023/01/24 06:32:45;;;;;;;;;;;;;;;2.43;93.12;103921.63;5088553;28;19923;-77
2023/01/24 06:35:13;;;;;;;;;;;;;;;2.39;92.89;103925.78;5078335;28;19916;-77
2023/01/24 06:37:38;;;;;;;;;;;;;;;2.38;92.98;103931.75;5077821;28;20188;-77
2023/01/24 06:40:06;;;;;;;;;;;;;;;2.35;92.95;103934.22;5077989;28;20018;-77
2023/01/24 06:42:32;;;;;;;;;;;;;;;2.37;93.33;103942.94;5076826;28;19927;-77
2023/01/24 06:44:57;;;;;;;;;;;;;;;2.38;93.58;103947.28;5083437;28;19916;-77
2023/01/24 06:47:25;;;;;;;;;;;;;;;2.40;93.84;103945.66;5093850;28;19928;-77
2023/01/24 06:49:50;;;;;;;;;;;;;;;2.44;94.12;103944.09;5082389;28;19976;-77
2023/01/24 06:52:15;;;;;;;;;;;;;;;2.45;94.33;103938.94;5079421;28;20192;-77
2023/01/24 06:54:40;;;;;;;;;;;;;;;2.46;93.82;103942.44;5084353;28;19924;-77
2023/01/24 06:57:06;;;;;;;;;;;;;;;2.48;93.88;103940.81;5059972;28;20214;-77
2023/01/24 06:59:31;;;;;;;;;;;;;;;2.50;94.40;103945.22;5088742;28;19920;-77
2023/01/24 07:01:56;;;;;;;;;;;;;;;2.55;94.50;103941.94;5095970;28;19932;-77
2023/01/24 07:04:22;;;;;;;;;;;;;;;2.54;93.99;103938.47;5086545;28;19925;-77
2023/01/24 07:06:52;;;;;;;;;;;;;;;2.56;94.36;103941.13;5078726;28;20036;-77
2023/01/24 07:09:17;;;;;;;;;;;;;;;2.57;94.28;103943.78;5085517;28;20041;-77
2023/01/24 07:11:42;;;;;;;;;;;;;;;2.59;94.52;103938.69;5096759;28;19916;-77
2023/01/24 07:14:08;;;;;;;;;;;;;;;2.59;94.53;103936.97;5089882;28;19966;-77
2023/01/24 07:16:33;;;;;;;;;;;;;;;2.62;94.67;103941.38;5088578;28;19955;-78
2023/01/24 07:18:58;;;;;;;;;;;;;;;2.63;94.68;103945.75;5091191;28;20045;-77
2023/01/24 07:21:24;;;;;;;;;;;;;;;2.64;94.64;103943.22;5076469;28;19920;-77
2023/01/24 07:23:49;;;;;;;;;;;;;;;2.64;94.18;103947.53;5078968;28;19920;-76
2023/01/24 07:26:15;;;;;;;;;;;;;;;2.65;94.27;103951.84;5085918;28;19927;-78
2023/01/24 07:28:40;;;;;;;;;;;;;;;2.65;94.58;103947.56;5060220;28;19920;-78
2023/01/24 07:31:06;;;;;;;;;;;;;;;2.66;94.61;103951.94;5097752;28;19974;-78
2023/01/24 07:33:32;;;;;;;;;;;;;;;2.61;93.37;103950.84;5090335;28;20252;-78
2023/01/24 07:36:00;;;;;;;;;;;;;;;2.63;93.79;103958.69;5079846;28;19988;-78
2023/01/24 07:38:25;;;;;;;;;;;;;;;2.63;93.83;103958.69;5077203;28;19917;-77
2023/01/24 07:40:51;;;;;;;;;;;;;;;2.65;94.26;103955.31;5079038;28;20255;-78
2023/01/24 07:43:18;;;;;;;;;;;;;;;2.65;94.54;103964.81;5076883;28;19952;-78
2023/01/24 07:45:46;;;;;;;;;;;;;;;2.62;93.74;103969.84;5077685;28;19928;-78
2023/01/24 07:48:12;;;;;;;;;;;;;;;2.60;93.44;103972.38;5077423;28;19916;-77
2023/01/24 07:50:37;;;;;;;;;;;;;;;2.61;93.83;103963.78;5089987;28;19916;-78
2023/01/24 07:53:02;;;;;;;;;;;;;;;2.60;93.51;103968.88;5097724;28;19912;-78
2023/01/24 07:55:28;;;;;;;;;;;;;;;2.59;93.38;103972.31;5085269;28;19924;-78
2023/01/24 07:58:01;;;;;;;;;;;;;;;2.58;93.67;103968.81;5076288;28;19920;-78
2023/01/24 08:00:26;;;;;;;;;;;;;;;2.54;92.75;103979.00;5081345;28;19923;-78
2023/01/24 08:02:51;;;;;;;;;;;;;;;2.53;92.98;103982.38;5097658;28;19940;-78
2023/01/24 08:05:17;;;;;;;;;;;;;;;2.52;93.11;103978.03;5078564;28;20312;-78
2023/01/24 08:07:42;;;;;;;;;;;;;;;2.53;93.72;103992.72;5068825;28;19936;-78
2023/01/24 08:10:07;;;;;;;;;;;;;;;2.52;93.65;103988.41;5073493;28;20011;-78
2023/01/24 08:12:33;;;;;;;;;;;;;;;2.48;93.05;103993.44;5074853;28;19924;-79
2023/01/24 08:14:58;;;;;;;;;;;;;;;2.47;93.13;103994.25;5079807;28;20163;-78
2023/01/24 08:17:23;;;;;;;;;;;;;;;2.42;92.26;103988.00;5081114;28;19931;-78
2023/01/24 08:19:48;;;;;;;;;;;;;;;2.41;92.70;103988.81;5073069;28;19935;-78
2023/01/24 08:22:14;;;;;;;;;;;;;;;2.39;92.96;103985.28;5074112;28;19971;-78
2023/01/24 08:24:39;;;;;;;;;;;;;;;2.39;92.74;103992.16;5073271;28;20357;-78
2023/01/24 08:27:05;;;;;;;;;;;;;;;2.41;93.30;103993.09;5077699;28;20313;-78
2023/01/24 08:29:31;;;;;;;;;;;;;;;2.42;93.64;103985.41;5077465;28;19956;-78
2023/01/24 08:31:57;;;;;;;;;;;;;;;2.43;93.36;103994.91;5080014;28;19919;-78
2023/01/24 08:34:22;;;;;;;;;;;;;;;2.44;93.20;104001.88;5076172;28;19928;-78
2023/01/24 08:36:47;;;;;;;;;;;;;;;2.40;92.51;104001.66;5073597;28;20265;-78
2023/01/24 08:39:12;;;;;;;;;;;;;;;2.37;92.59;104007.59;5079511;28;19924;-78
2023/01/24 08:41:38;;;;;;;;;;;;;;;2.37;92.82;104004.13;5081380;28;19912;-78
2023/01/24 08:44:03;;;;;;;;;;;;;;;2.37;92.94;104010.19;5081320;28;19927;-78
2023/01/24 08:46:29;;;;;;;;;;;;;;;2.38;93.31;104006.75;5080848;28;19946;-78
2023/01/24 08:48:55;;;;;;;;;;;;;;;2.37;93.02;104001.56;5079772;28;19966;-78
2023/01/24 08:51:20;;;;;;;;;;;;;;;2.35;92.77;104009.25;5084895;28;20304;-78
2023/01/24 08:53:45;;;;;;;;;;;;;;;2.35;92.82;104009.25;5080004;28;20251;-78
2023/01/24 08:56:11;;;;;;;;;;;;;;;2.36;92.85;104015.28;5080289;28;19928;-78
2023/01/24 08:58:36;;;;;;;;;;;;;;;2.36;93.11;104007.53;5085931;28;19920;-78
2023/01/24 09:01:08;;;;;;;;;;;;;;;2.37;92.96;104011.91;5085098;28;19916;-78
2023/01/24 09:03:33;;;;;;;;;;;;;;;2.34;92.92;104010.03;5087615;28;19924;-78
2023/01/24 09:05:59;;;;;;;;;;;;;;;2.32;92.89;104016.84;5095077;28;20118;-78
2023/01/24 09:08:24;;;;;;;;;;;;;;;2.25;92.56;104019.97;5079416;28;20093;-78
2023/01/24 09:10:49;;;;;;;;;;;;;;;2.19;92.19;104015.41;5086166;28;19924;-78
2023/01/24 09:13:15;;;;;;;;;;;;;;;2.20;92.65;104024.06;5087650;28;19931;-78
2023/01/24 09:15:40;;;;;;;;;;;;;;;2.19;92.68;104024.88;5088788;28;20196;-78
2023/01/24 09:18:05;;;;;;;;;;;;;;;2.20;92.86;104021.47;5078379;28;20348;-78
2023/01/24 09:20:31;;;;;;;;;;;;;;;2.23;93.52;104030.25;5092969;28;19931;-78
2023/01/24 09:22:56;;;;;;;;;;;;;;;2.24;93.62;104031.16;5083872;28;19912;-78
2023/01/24 09:25:22;;;;;;;;;;;;;;;2.22;93.27;104033.66;5078910;28;19929;-78
2023/01/24 09:27:56;;;;;;;;;;;;;;;2.19;92.95;104036.09;5077229;28;19933;-78
2023/01/24 09:30:22;;;;;;;;;;;;;;;2.16;93.07;104041.13;5077034;28;19997;-78
2023/01/24 09:32:48;;;;;;;;;;;;;;;2.15;93.10;104033.28;5083470;28;19955;-78
2023/01/24 09:35:13;;;;;;;;;;;;;;;2.14;93.46;104032.41;5079362;28;19927;-78
2023/01/24 09:37:39;;;;;;;;;;;;;;;2.17;93.91;104032.56;5080779;28;19928;-78
2023/01/24 09:40:05;;;;;;;;;;;;;;;2.21;94.21;104038.78;5075133;28;20200;-78
2023/01/24 09:42:41;;;;;;;;;;;;;;;2.23;94.47;104040.59;5077922;28;19995;-79
2023/01/24 09:45:06;;;;;;;;;;;;;;;2.24;94.38;104042.38;5079275;28;19950;-78
2023/01/24 09:47:40;;;;;;;;;;;;;;;2.28;94.32;104038.22;5078169;28;20385;-78
2023/01/24 09:50:10;;;;;;;;;;;;;;;2.29;94.00;104045.16;5086312;28;19919;-78
2023/01/24 09:52:35;;;;;;;;;;;;;;;2.28;93.96;104046.88;5077750;28;19919;-78
2023/01/24 09:55:25;;;;;;;;;;;;;;;2.30;94.35;104047.81;5079540;28;19921;-78
2023/01/24 09:58:03;;;;;;;;;;;;;;;2.33;94.12;104048.75;5068273;28;19912;-78
2023/01/24 10:00:29;;;;;;;;;;;;;;;2.32;94.10;104050.47;5074492;28;19920;-78
2023/01/24 10:02:56;;;;;;;;;;;;;;;2.34;93.89;104056.59;5075580;28;19919;-78
2023/01/24 10:05:24;;;;;;;;;;;;;;;2.38;94.62;104055.91;5078485;28;19920;-78
2023/01/24 10:07:58;;;;;;;;;;;;;;;2.41;95.06;104058.66;5077463;28;19962;-78
2023/01/24 10:10:23;;;;;;;;;;;;;;;2.44;95.15;104053.63;5081653;28;19950;-78
2023/01/24 10:12:56;;;;;;;;;;;;;;;2.46;95.08;104056.28;5079170;28;19963;-78
2023/01/24 10:16:00;;;;;;;;;;;;;;;2.45;94.59;104045.03;5079108;28;19920;-78
2023/01/24 10:18:44;;;;;;;;;;;;;;;2.44;94.53;104045.84;5013968;28;20118;-78
2023/01/24 10:21:18;;;;;;;;;;;;;;;2.44;94.38;104047.56;5015013;28;19921;-78
2023/01/24 10:23:44;;;;;;;;;;;;;;;2.46;94.72;104043.34;5058706;28;19920;-78
2023/01/24 10:26:22;;;;;;;;;;;;;;;2.49;95.11;104048.63;5075978;28;19928;-78
2023/01/24 10:28:59;;;;;;;;;;;;;;;2.50;95.59;104053.88;5076172;28;19950;-78
2023/01/24 10:31:26;;;;;;;;;;;;;;;2.51;95.16;104052.19;5083544;28;19916;-78
2023/01/24 10:33:58;;;;;;;;;;;;;;;2.52;95.13;104053.94;5076695;28;20149;-78
2023/01/24 10:36:38;;;;;;;;;;;;;;;2.50;95.05;104048.72;5078042;28;19920;-78
2023/01/24 10:39:03;;;;;;;;;;;;;;;2.49;94.74;104041.78;5087578;28;19945;-78
2023/01/24 10:41:30;;;;;;;;;;;;;;;2.44;93.51;104045.84;5081737;28;19960;-78
2023/01/24 10:44:14;;;;;;;;;;;;;;;2.38;92.79;104040.38;5078325;28;19916;-78
2023/01/24 10:46:39;;;;;;;;;;;;;;;2.38;93.52;104037.81;5073685;28;20219;-78
2023/01/24 10:49:07;;;;;;;;;;;;;;;2.38;93.99;104040.38;5077488;28;19932;-78
2023/01/24 10:51:32;;;;;;;;;;;;;;;2.37;93.76;104040.34;5077038;28;19919;-78
2023/01/24 10:54:01;;;;;;;;;;;;;;;2.37;94.00;104037.75;5079713;28;20208;-78
2023/01/24 10:56:26;;;;;;;;;;;;;;;2.38;94.41;104039.50;5080703;28;19923;-78
2023/01/24 10:58:54;;;;;;;;;;;;;;;2.39;94.63;104031.81;5077031;28;19920;-78
2023/01/24 11:01:21;;;;;;;;;;;;;;;2.40;94.47;104030.13;5071125;28;19967;-78
2023/01/24 11:03:48;;;;;;;;;;;;;;;2.40;94.54;104032.72;5082823;28;19927;-78
2023/01/24 11:06:39;;;;;;;;;;;;;;;2.41;94.73;104024.16;5078861;28;20142;-78
2023/01/24 11:09:13;;;;;;;;;;;;;;;2.42;95.12;104029.38;5078057;28;20190;-78
2023/01/24 11:11:43;;;;;;;;;;;;;;;2.40;94.42;104023.25;5076823;28;19984;-78
2023/01/24 11:14:10;;;;;;;;;;;;;;;2.39;94.29;104020.59;5087300;28;19951;-78
2023/01/24 11:16:43;;;;;;;;;;;;;;;2.38;94.04;104022.28;5076929;28;20234;-78
2023/01/24 11:19:20;;;;;;;;;;;;;;;2.39;94.17;104015.44;5085222;28;20219;-78
2023/01/24 11:21:52;;;;;;;;;;;;;;;2.38;93.93;104013.66;5079202;28;19915;-78
2023/01/24 11:24:19;;;;;;;;;;;;;;;2.36;93.55;104023.03;5076180;28;20281;-78
2023/01/24 11:26:53;;;;;;;;;;;;;;;2.35;93.49;104016.09;5077050;28;19999;-78
2023/01/24 11:29:19;;;;;;;;;;;;;;;2.33;93.36;104013.47;5081458;28;19919;-79
2023/01/24 11:31:48;;;;;;;;;;;;;;;2.34;93.24;104011.75;5075480;28;20132;-78
2023/01/24 11:34:17;;;;;;;;;;;;;;;2.30;93.09;104008.13;5079686;28;19987;-79
2023/01/24 11:36:42;;;;;;;;;;;;;;;2.31;93.40;104012.50;5078532;28;20242;-79
2023/01/24 11:39:23;;;;;;;;;;;;;;;2.33;93.95;104009.97;5088065;28;19962;-77
2023/01/24 11:41:52;;;;;;;;;;;;;;;2.31;93.89;104012.50;5079457;28;20103;-78
2023/01/24 11:44:18;;;;;;;;;;;;;;;2.29;94.03;104002.09;5077045;28;19924;-78
2023/01/24 11:46:59;;;;;;;;;;;;;;;2.32;94.48;104008.22;5076693;28;20073;-78
2023/01/24 11:49:24;;;;;;;;;;;;;;;2.34;94.52;103999.69;5085690;28;19918;-78
2023/01/24 11:51:55;;;;;;;;;;;;;;;2.36;94.66;103998.06;5083588;28;19920;-78
2023/01/24 11:54:29;;;;;;;;;;;;;;;2.37;94.42;103984.31;5077171;28;19958;-78
2023/01/24 11:57:12;;;;;;;;;;;;;;;2.39;94.32;103985.28;5075592;28;19966;-78
2023/01/24 11:59:38;;;;;;;;;;;;;;;2.40;94.26;103980.97;5079355;28;20115;-78
2023/01/24 12:02:12;;;;;;;;;;;;;;;2.40;93.98;103978.38;5076787;28;19920;-78
2023/01/24 12:04:38;;;;;;;;;;;;;;;2.43;94.64;103982.00;5079808;28;20253;-78
2023/01/24 12:07:03;;;;;;;;;;;;;;;2.43;94.31;103975.94;5080512;28;19916;-78
2023/01/24 12:09:43;;;;;;;;;;;;;;;2.44;94.16;103976.00;5084265;28;19924;-78
2023/01/24 12:12:24;;;;;;;;;;;;;;;2.42;93.98;103974.16;5079393;28;19916;-78
2023/01/24 12:15:05;;;;;;;;;;;;;;;2.45;94.46;103966.53;5085101;28;19947;-78
2023/01/24 12:17:37;;;;;;;;;;;;;;;2.47;94.68;103963.22;5085172;28;19912;-78
2023/01/24 12:20:02;;;;;;;;;;;;;;;2.51;95.23;103966.81;5083364;28;19935;-78
2023/01/24 12:22:28;;;;;;;;;;;;;;;2.48;94.02;103961.50;5077534;28;19980;-78
2023/01/24 12:25:19;;;;;;;;;;;;;;;2.49;94.23;103951.22;5078998;28;19931;-78
2023/01/24 12:27:45;;;;;;;;;;;;;;;2.54;94.84;103950.53;5092001;28;19962;-78
2023/01/24 12:30:30;;;;;;;;;;;;;;;2.53;94.83;103944.47;5084623;28;20077;-78
2023/01/24 12:33:09;;;;;;;;;;;;;;;2.53;93.84;103935.81;5094135;28;20139;-78
2023/01/24 12:35:41;;;;;;;;;;;;;;;2.50;93.85;103940.03;5080945;28;19920;-78
2023/01/24 12:38:25;;;;;;;;;;;;;;;2.48;93.21;103943.41;5078217;28;20195;-78
2023/01/24 12:40:54;;;;;;;;;;;;;;;2.44;92.88;103942.38;5083298;28;19912;-78
2023/01/24 12:43:20;;;;;;;;;;;;;;;2.42;93.01;103932.75;5081930;28;19991;-79
2023/01/24 12:45:54;;;;;;;;;;;;;;;2.37;92.62;103930.00;5082639;28;19925;-78
2023/01/24 12:48:26;;;;;;;;;;;;;;;2.39;93.46;103932.66;5080218;28;19978;-78
2023/01/24 12:51:10;;;;;;;;;;;;;;;2.40;94.10;103935.31;5079714;28;19922;-78
2023/01/24 12:53:41;;;;;;;;;;;;;;;2.42;94.40;103930.19;5084119;28;19921;-78
2023/01/24 12:56:13;;;;;;;;;;;;;;;2.41;94.15;103934.47;5080855;28;19920;-78
2023/01/24 12:58:43;;;;;;;;;;;;;;;2.39;93.33;103933.53;5078011;28;20025;-78
2023/01/24 13:01:23;;;;;;;;;;;;;;;2.36;93.09;103933.38;5080683;28;19920;-78
2023/01/24 13:04:10;;;;;;;;;;;;;;;2.35;93.36;103931.63;5107575;28;19947;-78
2023/01/24 13:06:54;;;;;;;;;;;;;;;2.36;93.33;103935.09;5079308;28;19916;-78
2023/01/24 13:09:19;;;;;;;;;;;;;;;2.36;93.86;103930.81;5081156;28;19962;-78
2023/01/24 13:11:45;;;;;;;;;;;;;;;2.34;93.49;103932.44;5087273;28;19912;-78
2023/01/24 13:14:21;;;;;;;;;;;;;;;2.35;93.90;103931.63;5082607;28;19925;-78
2023/01/24 13:16:50;;;;;;;;;;;;;;;2.34;93.28;103926.41;5078484;28;20134;-78
2023/01/24 13:19:32;;;;;;;;;;;;;;;2.27;92.44;103927.81;5083504;28;20032;-78
2023/01/24 13:22:06;;;;;;;;;;;;;;;2.25;92.87;103919.13;5084455;28;19921;-78
2023/01/24 13:24:34;;;;;;;;;;;;;;;2.24;92.79;103919.94;5084808;28;19924;-78
2023/01/24 13:27:02;;;;;;;;;;;;;;;2.25;93.52;103919.13;5082044;28;19924;-78
2023/01/24 13:29:28;;;;;;;;;;;;;;;2.23;92.86;103908.69;5080442;28;19913;-78
2023/01/24 13:31:56;;;;;;;;;;;;;;;2.23;92.78;103910.41;5077478;28;20388;-78